createdAt,value
2022-08-31T00:00:26.111Z,8.43
2022-08-31T00:03:11.823Z,8.50
2022-08-31T00:05:40.270Z,7.35
2022-08-31T00:08:08.745Z,7.38
2022-08-31T00:10:40.946Z,7.18
2022-08-31T00:13:12.800Z,6.72
2022-08-31T00:15:40.894Z,7.15
2022-08-31T00:18:09.450Z,6.68
2022-08-31T00:20:37.767Z,6.80
2022-08-31T00:23:06.745Z,7.15
2022-08-31T00:25:35.456Z,8.07
2022-08-31T00:28:03.989Z,7.90
2022-08-31T00:30:33.842Z,7.20
2022-08-31T00:33:02.653Z,7.75
2022-08-31T00:35:33.208Z,7.47
2022-08-31T00:38:02.009Z,7.28
2022-08-31T00:40:30.674Z,8.45
2022-08-31T00:43:00.346Z,7.55
2022-08-31T00:45:29.071Z,8.40
2022-08-31T00:47:58.512Z,8.02
2022-08-31T00:50:27.217Z,7.80
2022-08-31T00:52:57.958Z,7.60
2022-08-31T00:55:31.137Z,7.88
2022-08-31T00:58:03.637Z,8.00
2022-08-31T01:00:32.435Z,7.47
2022-08-31T01:03:04.798Z,7.45
2022-08-31T01:05:33.600Z,6.90
2022-08-31T01:08:03.404Z,7.38
2022-08-31T01:10:34.310Z,7.80
2022-08-31T01:13:03.662Z,7.95
2022-08-31T01:15:33.065Z,7.75
2022-08-31T01:18:05.691Z,7.53
2022-08-31T01:20:48.826Z,7.60
2022-08-31T01:23:21.573Z,7.60
2022-08-31T01:25:51.471Z,8.20
2022-08-31T01:28:19.902Z,7.40
2022-08-31T01:31:00.104Z,7.60
2022-08-31T01:33:28.627Z,7.47
2022-08-31T01:35:58.128Z,8.05
2022-08-31T01:38:27.954Z,7.97
2022-08-31T01:40:58.973Z,7.53
2022-08-31T01:43:27.044Z,7.65
2022-08-31T01:45:55.165Z,7.35
2022-08-31T01:48:24.195Z,7.38
2022-08-31T01:50:52.254Z,7.45
2022-08-31T01:53:20.272Z,7.68
2022-08-31T01:55:49.623Z,7.60
2022-08-31T01:58:17.609Z,7.65
2022-08-31T02:00:46.124Z,7.88
2022-08-31T02:03:14.323Z,8.13
2022-08-31T02:05:42.408Z,8.07
2022-08-31T02:08:11.689Z,7.88
2022-08-31T02:10:40.818Z,7.35
2022-08-31T02:13:10.209Z,7.72
2022-08-31T02:15:39.613Z,7.47
2022-08-31T02:18:08.450Z,7.55
2022-08-31T02:20:37.321Z,7.50
2022-08-31T02:23:05.336Z,7.82
2022-08-31T02:25:33.806Z,7.47
2022-08-31T02:28:01.794Z,6.78
2022-08-31T02:30:31.414Z,7.28
2022-08-31T02:32:59.444Z,7.13
2022-08-31T02:35:27.438Z,7.03
2022-08-31T02:37:55.456Z,7.03
2022-08-31T02:40:23.549Z,7.03
2022-08-31T02:42:52.767Z,8.20
2022-08-31T02:45:22.467Z,7.80
2022-08-31T02:47:52.175Z,8.20
2022-08-31T02:50:20.726Z,8.25
2022-08-31T02:52:49.922Z,7.38
2022-08-31T02:55:18.873Z,7.38
2022-08-31T02:57:50.566Z,7.32
2022-08-31T03:00:19.426Z,7.05
2022-08-31T03:02:47.520Z,6.80
2022-08-31T03:05:17.428Z,6.25
2022-08-31T03:07:45.795Z,7.20
2022-08-31T03:10:15.257Z,6.82
2022-08-31T03:12:43.669Z,6.55
2022-08-31T03:15:12.666Z,6.80
2022-08-31T03:17:40.660Z,7.38
2022-08-31T03:20:10.707Z,8.45
2022-08-31T03:22:40.085Z,8.68
2022-08-31T03:25:14.334Z,8.95
2022-08-31T03:27:42.506Z,8.90
2022-08-31T03:30:12.970Z,9.07
2022-08-31T03:32:41.481Z,9.15
2022-08-31T03:35:10.199Z,8.15
2022-08-31T03:37:39.579Z,8.73
2022-08-31T03:40:09.142Z,7.93
2022-08-31T03:42:37.153Z,7.45
2022-08-31T03:45:07.924Z,7.93
2022-08-31T03:47:37.121Z,7.72
2022-08-31T03:50:13.390Z,6.90
2022-08-31T03:52:43.026Z,7.40
2022-08-31T03:55:12.538Z,7.28
2022-08-31T03:57:40.616Z,7.28
2022-08-31T04:00:10.484Z,7.57
2022-08-31T04:02:39.464Z,7.28
2022-08-31T04:05:08.776Z,7.28
2022-08-31T04:07:42.681Z,7.22
2022-08-31T04:10:13.236Z,7.22
2022-08-31T04:12:42.143Z,7.45
2022-08-31T04:15:11.422Z,7.38
2022-08-31T04:17:39.487Z,7.25
2022-08-31T04:20:08.426Z,7.05
2022-08-31T04:22:36.503Z,6.78
2022-08-31T04:25:05.276Z,6.95
2022-08-31T04:27:34.621Z,6.63
2022-08-31T04:30:03.863Z,6.05
2022-08-31T04:32:31.879Z,6.80
2022-08-31T04:34:59.879Z,6.20
2022-08-31T04:37:27.877Z,6.18
2022-08-31T04:39:56.231Z,6.57
2022-08-31T04:42:27.226Z,6.18
2022-08-31T04:44:56.809Z,6.22
2022-08-31T04:47:24.844Z,6.07
2022-08-31T04:49:52.854Z,6.50
2022-08-31T04:52:22.012Z,5.65
2022-08-31T04:54:56.744Z,6.45
2022-08-31T04:57:24.705Z,6.93
2022-08-31T04:59:52.754Z,6.70
2022-08-31T05:02:22.161Z,6.22
2022-08-31T05:04:50.210Z,6.43
2022-08-31T05:07:18.222Z,6.18
2022-08-31T05:09:46.257Z,5.85
2022-08-31T05:12:14.298Z,6.30
2022-08-31T05:14:43.282Z,6.03
2022-08-31T05:17:15.068Z,6.53
2022-08-31T05:19:44.764Z,6.72
2022-08-31T05:22:12.773Z,6.70
2022-08-31T05:24:40.783Z,6.45
2022-08-31T05:27:09.762Z,7.05
2022-08-31T05:29:37.751Z,7.13
2022-08-31T05:32:05.847Z,5.97
2022-08-31T05:34:33.844Z,7.05
2022-08-31T05:37:03.230Z,9.63
2022-08-31T05:39:33.269Z,9.30
2022-08-31T05:42:01.469Z,10.93
2022-08-31T05:44:29.758Z,13.82
2022-08-31T05:47:03.796Z,13.63
2022-08-31T05:49:32.548Z,11.63
2022-08-31T05:52:02.991Z,8.65
2022-08-31T05:54:31.160Z,8.20
2022-08-31T05:57:01.529Z,7.68
2022-08-31T05:59:31.029Z,7.65
2022-08-31T06:01:59.434Z,7.30
2022-08-31T06:04:28.396Z,6.80
2022-08-31T06:06:57.247Z,6.78
2022-08-31T06:09:27.172Z,7.10
2022-08-31T06:11:55.197Z,7.25
2022-08-31T06:14:23.847Z,7.57
2022-08-31T06:16:51.899Z,7.10
2022-08-31T06:19:20.743Z,6.18
2022-08-31T06:21:50.901Z,7.03
2022-08-31T06:24:19.993Z,6.60
2022-08-31T06:26:57.950Z,6.63
2022-08-31T06:29:27.632Z,6.25
2022-08-31T06:31:55.755Z,6.65
2022-08-31T06:34:23.833Z,6.47
2022-08-31T06:36:51.913Z,6.55
2022-08-31T06:39:19.947Z,5.70
2022-08-31T06:41:52.583Z,6.78
2022-08-31T06:44:22.295Z,7.40
2022-08-31T06:46:50.982Z,6.68
2022-08-31T06:49:20.413Z,6.80
2022-08-31T06:51:48.514Z,7.00
2022-08-31T06:54:33.189Z,8.63
2022-08-31T06:57:03.397Z,7.88
2022-08-31T06:59:31.430Z,7.20
2022-08-31T07:02:00.700Z,6.75
2022-08-31T07:04:32.367Z,6.57
2022-08-31T07:07:00.504Z,6.65
2022-08-31T07:09:28.635Z,8.00
2022-08-31T07:11:56.713Z,6.60
2022-08-31T07:14:27.907Z,6.78
2022-08-31T07:16:58.421Z,7.43
2022-08-31T07:19:27.803Z,6.32
2022-08-31T07:21:57.749Z,5.97
2022-08-31T07:24:29.056Z,5.32
2022-08-31T07:26:59.345Z,6.82
2022-08-31T07:29:33.182Z,6.20
2022-08-31T07:32:01.259Z,5.07
2022-08-31T07:34:33.612Z,5.20
2022-08-31T07:37:19.798Z,5.25
2022-08-31T07:40:07.743Z,5.10
2022-08-31T07:42:38.851Z,5.50
2022-08-31T07:45:12.765Z,5.75
2022-08-31T07:47:46.190Z,6.07
2022-08-31T07:50:15.262Z,6.28
2022-08-31T07:52:47.275Z,5.93
2022-08-31T07:55:17.875Z,5.32
2022-08-31T07:57:47.441Z,6.38
2022-08-31T08:00:21.330Z,6.05
2022-08-31T08:02:53.539Z,6.22
2022-08-31T08:05:27.693Z,6.97
2022-08-31T08:08:07.291Z,5.65
2022-08-31T08:10:41.478Z,6.55
2022-08-31T08:13:12.677Z,6.43
2022-08-31T08:15:42.332Z,6.05
2022-08-31T08:18:13.373Z,6.28
2022-08-31T08:20:41.894Z,6.05
2022-08-31T08:23:13.838Z,5.80
2022-08-31T08:25:43.462Z,6.45
2022-08-31T08:28:38.107Z,5.90
2022-08-31T08:31:07.661Z,6.13
2022-08-31T08:33:37.070Z,5.47
2022-08-31T08:36:08.325Z,6.05
2022-08-31T08:38:39.170Z,5.82
2022-08-31T08:41:12.421Z,5.97
2022-08-31T08:43:44.159Z,5.60
2022-08-31T08:46:34.932Z,6.35
2022-08-31T08:49:13.419Z,5.72
2022-08-31T08:51:41.582Z,5.95
2022-08-31T08:54:13.456Z,6.35
2022-08-31T08:56:47.775Z,6.07
2022-08-31T08:59:19.569Z,6.25
2022-08-31T09:01:53.130Z,6.15
2022-08-31T09:04:39.786Z,5.50
2022-08-31T09:07:27.197Z,5.90
2022-08-31T09:10:02.281Z,9.68
2022-08-31T09:12:42.149Z,7.15
2022-08-31T09:15:36.634Z,5.60
2022-08-31T09:18:18.661Z,5.90
2022-08-31T09:21:11.749Z,8.82
2022-08-31T09:23:52.433Z,12.95
2022-08-31T09:26:25.081Z,8.75
2022-08-31T09:28:53.604Z,9.15
2022-08-31T09:31:34.647Z,21.00
2022-08-31T09:34:06.839Z,5.43
2022-08-31T09:36:40.738Z,5.40
2022-08-31T09:39:17.199Z,5.18
2022-08-31T09:41:46.044Z,4.80
2022-08-31T09:44:26.256Z,4.70
2022-08-31T09:46:59.398Z,5.10
2022-08-31T09:49:31.080Z,4.63
2022-08-31T09:52:21.301Z,4.75
2022-08-31T09:55:15.195Z,4.88
2022-08-31T09:57:50.445Z,4.90
2022-08-31T10:00:28.529Z,4.10
2022-08-31T10:03:02.486Z,4.13
2022-08-31T10:05:40.820Z,3.95
2022-08-31T10:08:20.719Z,3.80
2022-08-31T10:10:52.300Z,3.95
2022-08-31T10:13:28.628Z,4.07
2022-08-31T10:16:01.929Z,3.92
2022-08-31T10:18:38.129Z,3.58
2022-08-31T10:21:11.673Z,4.00
2022-08-31T10:23:54.313Z,3.33
2022-08-31T10:26:36.237Z,3.70
2022-08-31T10:29:16.719Z,3.60
2022-08-31T10:31:55.955Z,3.45
2022-08-31T10:34:44.016Z,3.38
2022-08-31T10:37:18.098Z,3.47
2022-08-31T10:39:49.871Z,3.50
2022-08-31T10:42:24.926Z,3.50
2022-08-31T10:44:57.377Z,3.30
2022-08-31T10:47:32.854Z,3.25
2022-08-31T10:50:04.532Z,3.15
2022-08-31T10:52:43.071Z,4.07
2022-08-31T10:55:33.073Z,3.20
2022-08-31T10:58:07.865Z,3.67
2022-08-31T11:00:46.603Z,3.03
2022-08-31T11:03:22.559Z,3.22
2022-08-31T11:05:57.372Z,3.10
2022-08-31T11:08:49.094Z,3.20
2022-08-31T11:11:35.871Z,3.17
2022-08-31T11:14:45.333Z,3.10
2022-08-31T11:17:26.136Z,3.28
2022-08-31T11:20:19.878Z,3.35
2022-08-31T11:23:13.946Z,3.20
2022-08-31T11:26:46.204Z,3.58
2022-08-31T11:29:29.070Z,2.95
2022-08-31T11:32:01.006Z,3.28
2022-08-31T11:34:31.695Z,3.80
2022-08-31T11:37:04.963Z,5.00
2022-08-31T11:39:40.371Z,3.90
2022-08-31T11:42:32.446Z,3.67
2022-08-31T11:45:03.592Z,3.88
2022-08-31T11:47:42.480Z,3.20
2022-08-31T11:50:14.040Z,3.30
2022-08-31T11:52:48.451Z,5.45
2022-08-31T11:55:24.000Z,4.00
2022-08-31T11:58:34.880Z,4.80
2022-08-31T12:01:09.429Z,3.45
2022-08-31T12:03:53.249Z,3.47
2022-08-31T12:07:07.035Z,4.50
2022-08-31T12:10:16.809Z,3.00
2022-08-31T12:13:19.620Z,3.63
2022-08-31T12:16:15.019Z,3.10
2022-08-31T12:19:01.306Z,3.42
2022-08-31T12:21:59.223Z,3.58
2022-08-31T12:24:38.445Z,3.20
2022-08-31T12:27:27.570Z,3.20
2022-08-31T12:30:21.651Z,4.07
2022-08-31T12:33:00.186Z,3.20
2022-08-31T12:35:32.323Z,3.58
2022-08-31T12:38:02.841Z,3.00
2022-08-31T12:40:34.187Z,3.30
2022-08-31T12:43:06.963Z,3.00
2022-08-31T12:46:18.606Z,4.35
2022-08-31T12:49:24.494Z,3.38
2022-08-31T12:51:57.746Z,3.10
2022-08-31T12:54:56.558Z,3.38
2022-08-31T12:57:38.658Z,4.40
2022-08-31T13:00:13.134Z,3.20
2022-08-31T13:02:45.131Z,3.30
2022-08-31T13:05:22.333Z,3.55
2022-08-31T13:07:50.714Z,2.90
2022-08-31T13:10:28.774Z,3.13
2022-08-31T13:12:59.222Z,2.65
2022-08-31T13:15:29.717Z,3.30
2022-08-31T13:17:58.206Z,3.28
2022-08-31T13:20:34.932Z,3.10
2022-08-31T13:23:07.016Z,3.28
2022-08-31T13:25:37.827Z,3.20
2022-08-31T13:28:19.433Z,3.10
2022-08-31T13:31:01.496Z,3.28
2022-08-31T13:33:33.007Z,3.10
2022-08-31T13:36:07.673Z,2.85
2022-08-31T13:38:43.316Z,3.42
2022-08-31T13:41:27.373Z,2.95
2022-08-31T13:44:01.253Z,3.35
2022-08-31T13:46:42.958Z,2.92
2022-08-31T13:49:25.962Z,3.85
2022-08-31T13:51:55.387Z,6.82
2022-08-31T13:54:30.556Z,4.57
2022-08-31T13:57:11.008Z,3.60
2022-08-31T13:59:41.853Z,3.63
2022-08-31T14:02:30.719Z,3.15
2022-08-31T14:05:04.957Z,3.20
2022-08-31T14:07:55.273Z,3.60
2022-08-31T14:10:26.397Z,6.10
2022-08-31T14:12:58.541Z,6.80
2022-08-31T14:15:36.340Z,8.60
2022-08-31T14:18:24.319Z,5.82
2022-08-31T14:21:22.868Z,4.60
2022-08-31T14:24:01.420Z,7.07
2022-08-31T14:26:32.488Z,4.90
2022-08-31T14:29:02.802Z,3.80
2022-08-31T14:31:37.131Z,3.85
2022-08-31T14:34:22.138Z,3.50
2022-08-31T14:36:53.827Z,3.53
2022-08-31T14:39:27.869Z,3.35
2022-08-31T14:41:58.617Z,3.30
2022-08-31T14:44:29.502Z,3.08
2022-08-31T14:46:57.766Z,3.22
2022-08-31T14:49:25.924Z,3.60
2022-08-31T14:51:55.147Z,3.10
2022-08-31T14:54:24.839Z,4.20
2022-08-31T14:56:58.179Z,3.30
2022-08-31T14:59:26.471Z,3.00
2022-08-31T15:01:56.973Z,3.17
2022-08-31T15:04:25.205Z,3.50
2022-08-31T15:06:57.057Z,3.70
2022-08-31T15:09:26.394Z,3.30
2022-08-31T15:11:54.417Z,5.68
2022-08-31T15:14:22.437Z,9.65
2022-08-31T15:16:51.311Z,11.73
2022-08-31T15:19:19.374Z,16.85
2022-08-31T15:21:52.680Z,5.82
2022-08-31T15:24:28.635Z,3.67
2022-08-31T15:26:59.994Z,3.70
2022-08-31T15:29:30.310Z,3.28
2022-08-31T15:31:59.917Z,4.15
2022-08-31T15:34:30.294Z,3.42
2022-08-31T15:37:02.259Z,3.15
2022-08-31T15:39:35.546Z,3.40
2022-08-31T15:42:09.286Z,3.10
2022-08-31T15:44:37.809Z,3.42
2022-08-31T15:47:29.818Z,3.28
2022-08-31T15:49:58.379Z,3.25
2022-08-31T15:52:28.129Z,3.03
2022-08-31T15:54:58.310Z,3.40
2022-08-31T15:57:26.553Z,3.20
2022-08-31T15:59:54.609Z,3.28
2022-08-31T16:02:22.885Z,3.15
2022-08-31T16:04:51.385Z,3.60
2022-08-31T16:07:22.640Z,3.20
2022-08-31T16:09:50.684Z,3.38
2022-08-31T16:12:21.197Z,3.40
2022-08-31T16:14:51.675Z,3.08
2022-08-31T16:17:20.200Z,3.35
2022-08-31T16:19:49.444Z,3.70
2022-08-31T16:22:18.370Z,3.42
2022-08-31T16:24:51.038Z,3.30
2022-08-31T16:27:22.114Z,3.38
2022-08-31T16:29:52.096Z,3.50
2022-08-31T16:32:20.599Z,3.50
2022-08-31T16:34:49.513Z,2.92
2022-08-31T16:37:18.318Z,3.00
2022-08-31T16:39:47.880Z,3.05
2022-08-31T16:42:17.640Z,3.22
2022-08-31T16:44:48.055Z,3.20
2022-08-31T16:47:18.647Z,3.42
2022-08-31T16:49:46.248Z,3.20
2022-08-31T16:52:18.092Z,3.30
2022-08-31T16:54:48.327Z,3.45
2022-08-31T16:57:19.118Z,3.55
2022-08-31T16:59:50.408Z,3.92
2022-08-31T17:02:21.116Z,4.07
2022-08-31T17:04:52.517Z,3.72
2022-08-31T17:07:21.959Z,3.80
2022-08-31T17:09:49.989Z,3.30
2022-08-31T17:12:21.704Z,3.63
2022-08-31T17:14:52.734Z,3.50
2022-08-31T17:17:23.732Z,3.22
2022-08-31T17:19:53.088Z,3.35
2022-08-31T17:22:29.892Z,3.33
2022-08-31T17:25:02.817Z,3.30
2022-08-31T17:27:33.103Z,3.28
2022-08-31T17:30:05.870Z,3.38
2022-08-31T17:32:43.229Z,3.70
2022-08-31T17:35:17.458Z,3.45
2022-08-31T17:37:45.837Z,3.78
2022-08-31T17:40:14.300Z,3.60
2022-08-31T17:42:42.539Z,3.55
2022-08-31T17:45:13.483Z,3.85
2022-08-31T17:47:41.549Z,4.20
2022-08-31T17:50:10.304Z,4.03
2022-08-31T17:52:38.347Z,3.50
2022-08-31T17:55:07.407Z,3.97
2022-08-31T17:57:35.406Z,3.53
2022-08-31T18:00:04.941Z,3.70
2022-08-31T18:02:35.091Z,4.18
2022-08-31T18:05:09.352Z,3.85
2022-08-31T18:07:39.290Z,4.05
2022-08-31T18:10:07.860Z,3.70
2022-08-31T18:12:41.218Z,3.50
2022-08-31T18:15:11.134Z,3.88
2022-08-31T18:17:40.686Z,4.30
2022-08-31T18:20:10.679Z,4.32
2022-08-31T18:22:39.884Z,4.07
2022-08-31T18:25:08.356Z,3.70
2022-08-31T18:27:36.387Z,3.88
2022-08-31T18:30:05.980Z,4.28
2022-08-31T18:32:36.920Z,4.10
2022-08-31T18:35:14.141Z,3.92
2022-08-31T18:37:42.391Z,4.13
2022-08-31T18:40:28.572Z,4.30
2022-08-31T18:43:14.885Z,3.88
2022-08-31T18:45:42.947Z,4.40
2022-08-31T18:48:24.761Z,4.03
2022-08-31T18:50:56.883Z,4.00
2022-08-31T18:53:28.573Z,4.05
2022-08-31T18:55:59.453Z,4.03
2022-08-31T18:58:28.803Z,3.88
2022-08-31T19:00:58.737Z,4.20
2022-08-31T19:03:27.439Z,4.53
2022-08-31T19:05:57.084Z,3.83
2022-08-31T19:08:26.143Z,3.83
2022-08-31T19:10:58.029Z,4.00
2022-08-31T19:13:31.555Z,3.92
2022-08-31T19:16:03.554Z,4.20
2022-08-31T19:18:34.144Z,4.07
2022-08-31T19:21:17.094Z,4.30
2022-08-31T19:23:45.169Z,3.83
2022-08-31T19:26:20.154Z,4.28
2022-08-31T19:28:48.933Z,4.30
2022-08-31T19:31:18.969Z,4.80
2022-08-31T19:33:47.199Z,4.55
2022-08-31T19:36:16.753Z,4.40
2022-08-31T19:38:47.227Z,4.18
2022-08-31T19:41:16.871Z,4.45
2022-08-31T19:43:54.763Z,4.75
2022-08-31T19:46:26.354Z,4.20
2022-08-31T19:48:59.182Z,4.70
2022-08-31T19:51:30.308Z,4.75
2022-08-31T19:54:03.318Z,4.22
2022-08-31T19:56:31.553Z,4.32
2022-08-31T19:59:00.679Z,4.30
2022-08-31T20:01:34.097Z,4.72
2022-08-31T20:04:03.540Z,4.15
2022-08-31T20:06:34.046Z,4.72
2022-08-31T20:09:02.078Z,4.57
2022-08-31T20:11:31.815Z,4.65
2022-08-31T20:14:00.709Z,4.40
2022-08-31T20:16:33.586Z,4.20
2022-08-31T20:19:04.162Z,4.22
2022-08-31T20:21:35.588Z,4.57
2022-08-31T20:24:06.574Z,4.57
2022-08-31T20:26:38.309Z,4.43
2022-08-31T20:29:18.118Z,4.40
2022-08-31T20:31:49.606Z,4.88
2022-08-31T20:34:20.114Z,4.63
2022-08-31T20:36:52.345Z,5.00
2022-08-31T20:39:22.820Z,5.00
2022-08-31T20:41:52.301Z,4.63
2022-08-31T20:44:23.000Z,4.65
2022-08-31T20:47:10.714Z,4.97
2022-08-31T20:49:41.232Z,4.63
2022-08-31T20:52:12.292Z,4.60
2022-08-31T20:54:43.001Z,4.63
2022-08-31T20:57:12.224Z,4.78
2022-08-31T20:59:41.454Z,4.88
2022-08-31T21:02:10.042Z,5.07
2022-08-31T21:04:41.306Z,4.80
2022-08-31T21:07:13.013Z,5.10
2022-08-31T21:09:41.605Z,4.75
2022-08-31T21:12:10.639Z,5.20
2022-08-31T21:14:43.573Z,5.18
2022-08-31T21:17:14.214Z,4.80
2022-08-31T21:19:43.487Z,4.88
2022-08-31T21:22:17.290Z,4.80
2022-08-31T21:24:47.436Z,4.60
2022-08-31T21:27:18.803Z,5.03
2022-08-31T21:29:47.158Z,4.88
2022-08-31T21:32:15.880Z,4.82
2022-08-31T21:34:43.927Z,5.25
2022-08-31T21:37:13.267Z,4.78
2022-08-31T21:39:42.211Z,4.45
2022-08-31T21:42:10.231Z,5.00
2022-08-31T21:44:38.841Z,4.85
2022-08-31T21:47:07.983Z,5.28
2022-08-31T21:49:35.982Z,4.95
2022-08-31T21:52:04.274Z,4.82
2022-08-31T21:54:33.658Z,5.00
2022-08-31T21:57:03.628Z,4.70
2022-08-31T21:59:35.231Z,5.18
2022-08-31T22:02:05.176Z,4.90
2022-08-31T22:04:36.077Z,4.80
2022-08-31T22:07:06.310Z,5.13
2022-08-31T22:09:36.910Z,4.85
2022-08-31T22:12:07.430Z,5.00
2022-08-31T22:14:38.136Z,5.10
2022-08-31T22:17:08.278Z,4.30
2022-08-31T22:19:39.053Z,5.03
2022-08-31T22:22:11.984Z,4.53
2022-08-31T22:24:42.754Z,4.93
2022-08-31T22:27:12.547Z,4.97
2022-08-31T22:29:41.456Z,5.10
2022-08-31T22:32:12.112Z,5.13
2022-08-31T22:34:41.311Z,4.90
2022-08-31T22:37:11.318Z,4.50
2022-08-31T22:39:42.716Z,5.00
2022-08-31T22:42:12.044Z,4.95
2022-08-31T22:44:41.059Z,5.25
2022-08-31T22:47:09.445Z,5.05
2022-08-31T22:49:37.568Z,4.80
2022-08-31T22:52:07.280Z,4.55
2022-08-31T22:54:36.536Z,5.07
2022-08-31T22:57:06.218Z,4.77
2022-08-31T22:59:34.196Z,4.78
2022-08-31T23:02:04.502Z,4.70
2022-08-31T23:04:35.257Z,4.43
2022-08-31T23:07:04.393Z,4.85
2022-08-31T23:09:34.153Z,4.85
2022-08-31T23:12:06.148Z,4.67
2022-08-31T23:14:34.279Z,4.65
2022-08-31T23:17:05.046Z,4.25
2022-08-31T23:19:36.976Z,4.70
2022-08-31T23:22:08.593Z,4.53
2022-08-31T23:24:38.803Z,4.43
2022-08-31T23:27:10.613Z,4.60
2022-08-31T23:29:41.033Z,4.40
2022-08-31T23:32:11.233Z,4.80
2022-08-31T23:34:39.657Z,4.90
2022-08-31T23:37:08.723Z,4.57
2022-08-31T23:39:37.999Z,4.50
2022-08-31T23:42:07.674Z,4.20
2022-08-31T23:44:42.225Z,4.25
2022-08-31T23:47:13.561Z,4.80
2022-08-31T23:49:42.334Z,4.45
2022-08-31T23:52:11.868Z,4.70
2022-08-31T23:54:40.011Z,4.40
2022-08-31T23:57:31.191Z,4.88
